Aérodrome :
LOGIN :

S'inscrire | Disclaimer

   EN    FR    IT 

 










Légende :    VFR   VFR Marginal   IFR   IFR Intensif   IFR Très Intensif
Visi : 
Plafond : 
>= 8 km
>= 3000ft
5 à 8 km
1000 à 3000 ft
1500m à 5 km
500 à 1000 ft
800 à 1500m
200 à 500 ft
< 800m
< 200 ft
Symboles :   Orages  Brouillard  Fortes neiges  Fortes précipitations  Vent > 20 kt
SIGMETs :   Divers  Orages  Givrage  Turbulence  Onde Orograph.  Cendres Volcan.







- Altitude de l'aérodrome : 289 ft
- Code IATA : ZAD


LDZD - Zadar

DERNIER METAR :
  • 191830Z 28006KT 240V310 9999 FEW025 16/11 Q1010 NOSIG

METARs EXPIRÉS :
  • 191800Z 26007KT 210V290 9999 FEW025 16/11 Q1010 NOSIG
  • 191730Z 27010KT 230V300 9999 FEW020 SCT033 16/12 Q1010 NOSIG
  • 191700Z 26012KT 230V300 9999 FEW020 SCT030 16/11 Q1009 NOSIG
  • 191630Z 25010KT 9999 FEW027 17/12 Q1009 NOSIG
  • 191600Z 26010KT 230V290 9999 FEW027 17/11 Q1009 NOSIG

TAF COR TAF LDZD
Valide du 19 à 18h jusqu'au 20 à 18h UTC


191729Z 1918/2018 24009KT 9999 FEW030 SCT033 TX18/2012Z TN12/2005Z
BECMG 1919/1921 10006KT
PROB30
TEMPO 1919/2003 4000 SHRA FEW020TCU BKN027
TEMPO 2000/2004 10009KT
BECMG 2004/2006 06010KT
BECMG 2011/2013 33012KT
TEMPO 2013/2017 33015G25KT
Pas de NOTAMs connus pour ce terrain.



MET'MAP, la Météo Aéronautique d'un coup d'oeil ! - Copyright ORBIFLY Décembre 2007 - Disclaimer

ORBIFLY MET'MAP TEAM :

Programmation & Développement : Alexandra Zaïnal
Conception & Développement : Baudouin d'Aumeries
Co-Programmation & Développement : Marc-Olivier Méhu
Soutien technique & logistique : Manuel Goepfert

Contact : metmap@orbifly.com




SOURCES & CREDITS :

   NOAA